Colp, Illinois
Current Conditions -  °F | °C
As of 2:15 AM on Sunday 26 Oct 2014 (Local Time) from KMWA Reporting Station
Moderate Fog Moderate Fog  
Wind Chill: 54°   Ceiling: 500
Heat Index: 54°   Visibility: 0.5mi
Dew Point: 54°   Wind: 0mph
Humidity: 100%   Direction: NA
Pressure: 30.02"   Gusts: NA
Location:  37.81°N, 89.08°W
Report Text: KMWA 260715Z AUTO 00000KT 1/2SM FG VV005 12/12 A3002 RMK AO2
Loading
Personal Weather Stations






























Interactive Weather Map
Tropical Storm Tracking
New forecast layout! Learn more

10-Day Weather Forecast

Advertisements
Track Severe Weather on mobile